createdAt,value
2023-02-16T00:01:53.881Z,-0.20
2023-02-16T00:04:24.928Z,-0.20
2023-02-16T00:06:53.921Z,-0.20
2023-02-16T00:09:23.052Z,-0.20
2023-02-16T00:12:10.061Z,-0.20
2023-02-16T00:14:41.596Z,-0.30
2023-02-16T00:17:12.430Z,-0.20
2023-02-16T00:19:42.345Z,-0.20
2023-02-16T00:22:11.382Z,-0.30
2023-02-16T00:24:39.444Z,-0.20
2023-02-16T00:27:13.586Z,-0.20
2023-02-16T00:29:45.472Z,-0.30
2023-02-16T00:32:15.302Z,-0.20
2023-02-16T00:34:45.969Z,-0.20
2023-02-16T00:37:14.631Z,-0.20
2023-02-16T00:39:44.182Z,-0.20
2023-02-16T00:42:19.171Z,-0.20
2023-02-16T00:44:51.038Z,-0.20
2023-02-16T00:47:21.889Z,-0.30
2023-02-16T00:49:51.733Z,-0.30
2023-02-16T00:52:35.161Z,-0.30
2023-02-16T00:55:06.965Z,-0.30
2023-02-16T00:57:38.977Z,-0.30
2023-02-16T01:00:16.910Z,-0.20
2023-02-16T01:02:46.871Z,-0.30
2023-02-16T01:05:15.555Z,-0.40
2023-02-16T01:08:02.246Z,-0.30
2023-02-16T01:10:48.671Z,-0.30
2023-02-16T01:13:17.538Z,-0.30
2023-02-16T01:15:47.076Z,-0.30
2023-02-16T01:18:18.069Z,-0.30
2023-02-16T01:20:49.058Z,-0.20
2023-02-16T01:23:17.127Z,-0.20
2023-02-16T01:25:45.253Z,-0.20
2023-02-16T01:28:21.253Z,-0.30
2023-02-16T01:30:51.133Z,-0.30
2023-02-16T01:33:19.317Z,-0.20
2023-02-16T01:35:47.519Z,-0.20
2023-02-16T01:38:20.579Z,-0.20
2023-02-16T01:40:57.772Z,-0.10
2023-02-16T01:43:29.664Z,-0.20
2023-02-16T01:46:06.750Z,-0.20
2023-02-16T01:48:34.736Z,-0.20
2023-02-16T01:51:08.851Z,-0.20
2023-02-16T01:53:43.149Z,-0.20
2023-02-16T01:56:21.428Z,-0.20
2023-02-16T01:58:55.642Z,-0.10
2023-02-16T02:01:45.257Z,-0.20
2023-02-16T02:04:40.749Z,-0.20
2023-02-16T02:07:12.756Z,-0.30
2023-02-16T02:09:46.203Z,-0.30
2023-02-16T02:12:22.971Z,-0.30
2023-02-16T02:14:51.654Z,-0.30
2023-02-16T02:17:22.743Z,-0.30
2023-02-16T02:20:01.189Z,-0.30
2023-02-16T02:23:24.318Z,-0.30
2023-02-16T02:26:31.107Z,-0.30
2023-02-16T02:29:17.736Z,-0.30
2023-02-16T02:31:57.164Z,-0.30
2023-02-16T02:34:34.899Z,-0.30
2023-02-16T02:37:12.092Z,-0.20
2023-02-16T02:39:50.866Z,-0.30
2023-02-16T02:42:26.159Z,-0.30
2023-02-16T02:45:03.088Z,-0.30
2023-02-16T02:47:42.097Z,-0.30
2023-02-16T02:51:04.785Z,-0.30
2023-02-16T02:53:37.118Z,-0.30
2023-02-16T02:56:26.106Z,-0.30
2023-02-16T02:59:31.407Z,-0.30
2023-02-16T03:02:02.763Z,-0.40
2023-02-16T03:04:34.481Z,-0.40
2023-02-16T03:07:06.391Z,-0.40
2023-02-16T03:09:34.344Z,-0.40
2023-02-16T03:12:23.116Z,-0.40
2023-02-16T03:14:54.853Z,-0.40
2023-02-16T03:17:45.699Z,-0.40
2023-02-16T03:20:34.879Z,-0.40
2023-02-16T03:23:21.836Z,-0.50
2023-02-16T03:26:11.394Z,-0.40
2023-02-16T03:29:01.376Z,-0.40
2023-02-16T03:31:32.888Z,-0.40
2023-02-16T03:34:02.907Z,-0.40
2023-02-16T03:36:34.030Z,-0.40
2023-02-16T03:39:04.088Z,-0.40
2023-02-16T03:41:35.128Z,-0.50
2023-02-16T03:44:03.554Z,-0.40
2023-02-16T03:46:31.788Z,-0.50
2023-02-16T03:49:02.102Z,-0.40
2023-02-16T03:51:30.025Z,-0.40
2023-02-16T03:53:58.974Z,-0.40
2023-02-16T03:56:27.401Z,-0.40
2023-02-16T03:58:56.164Z,-0.40
2023-02-16T04:01:24.314Z,-0.30
2023-02-16T04:03:52.794Z,-0.40
2023-02-16T04:06:22.097Z,-0.40
2023-02-16T04:08:51.397Z,-0.50
2023-02-16T04:11:37.136Z,-0.40
2023-02-16T04:14:05.671Z,-0.50
2023-02-16T04:16:33.767Z,-0.50
2023-02-16T04:19:02.128Z,-0.50
2023-02-16T04:21:31.813Z,-0.40
2023-02-16T04:24:00.358Z,-0.50
2023-02-16T04:26:28.412Z,-0.50
2023-02-16T04:28:56.628Z,-0.50
2023-02-16T04:31:24.646Z,-0.50
2023-02-16T04:33:52.862Z,-0.50
2023-02-16T04:36:20.786Z,-0.50
2023-02-16T04:38:50.074Z,-0.40
2023-02-16T04:41:18.479Z,-0.50
2023-02-16T04:43:46.662Z,-0.50
2023-02-16T04:46:14.645Z,-0.50
2023-02-16T04:48:43.122Z,-0.50
2023-02-16T04:51:11.145Z,-0.40
2023-02-16T04:53:41.808Z,-0.50
2023-02-16T04:56:32.533Z,-0.50
2023-02-16T04:59:02.122Z,-0.50
2023-02-16T05:01:30.256Z,-0.50
2023-02-16T05:03:58.401Z,-0.50
2023-02-16T05:06:27.113Z,-0.40
2023-02-16T05:08:55.453Z,-0.50
2023-02-16T05:11:41.426Z,-0.50
2023-02-16T05:14:37.634Z,-0.50
2023-02-16T05:17:06.561Z,-0.50
2023-02-16T05:19:34.630Z,-0.50
2023-02-16T05:22:03.060Z,-0.50
2023-02-16T05:24:31.037Z,-0.50
2023-02-16T05:26:59.347Z,-0.50
2023-02-16T05:29:28.701Z,-0.60
2023-02-16T05:31:56.892Z,-0.50
2023-02-16T05:34:25.740Z,-0.60
2023-02-16T05:36:56.716Z,-0.60
2023-02-16T05:39:25.099Z,-0.50
2023-02-16T05:41:53.114Z,-0.50
2023-02-16T05:44:21.366Z,-0.50
2023-02-16T05:46:50.833Z,-0.50
2023-02-16T05:49:18.971Z,-0.50
2023-02-16T05:51:47.344Z,-0.50
2023-02-16T05:54:18.020Z,-0.50
2023-02-16T05:56:47.890Z,-0.60
2023-02-16T05:59:16.984Z,-0.60
2023-02-16T06:01:51.019Z,-0.60
2023-02-16T06:04:22.676Z,-0.60
2023-02-16T06:06:51.265Z,-0.60
2023-02-16T06:09:19.266Z,-0.60
2023-02-16T06:11:47.361Z,-0.60
2023-02-16T06:14:17.704Z,-0.70
2023-02-16T06:16:49.739Z,-0.70
2023-02-16T06:19:20.172Z,-0.70
2023-02-16T06:21:49.607Z,-0.70
2023-02-16T06:24:17.713Z,-0.70
2023-02-16T06:26:47.244Z,-0.70
2023-02-16T06:29:15.637Z,-0.70
2023-02-16T06:31:43.737Z,-0.70
2023-02-16T06:34:12.321Z,-0.70
2023-02-16T06:36:42.515Z,-0.70
2023-02-16T06:39:13.902Z,-0.70
2023-02-16T06:41:42.146Z,-0.70
2023-02-16T06:44:13.500Z,-0.70
2023-02-16T06:46:42.267Z,-0.70
2023-02-16T06:49:12.965Z,-0.70
2023-02-16T06:51:41.292Z,-0.70
2023-02-16T06:54:09.314Z,-0.70
2023-02-16T06:56:39.395Z,-0.80
2023-02-16T06:59:09.643Z,-0.80
2023-02-16T07:01:37.787Z,-0.80
2023-02-16T07:04:05.905Z,-0.70
2023-02-16T07:06:33.875Z,-0.70
2023-02-16T07:09:02.142Z,-0.70
2023-02-16T07:11:30.286Z,-0.60
2023-02-16T07:14:00.414Z,-0.60
2023-02-16T07:16:28.840Z,-0.60
2023-02-16T07:18:57.350Z,-0.60
2023-02-16T07:21:25.468Z,-0.60
2023-02-16T07:23:53.573Z,-0.60
2023-02-16T07:26:21.865Z,-0.50
2023-02-16T07:28:50.177Z,-0.50
2023-02-16T07:31:19.910Z,-0.50
2023-02-16T07:33:47.989Z,-0.50
2023-02-16T07:36:16.237Z,-0.50
2023-02-16T07:38:44.267Z,-0.40
2023-02-16T07:41:13.474Z,-0.40
2023-02-16T07:43:43.177Z,-0.40
2023-02-16T07:46:11.888Z,-0.40
2023-02-16T07:48:41.257Z,-0.40
2023-02-16T07:51:09.940Z,-0.40
2023-02-16T07:53:37.889Z,-0.40
2023-02-16T07:56:06.341Z,-0.40
2023-02-16T07:58:34.298Z,-0.40
2023-02-16T08:01:09.242Z,-0.40
2023-02-16T08:03:37.326Z,-0.30
2023-02-16T08:06:08.375Z,-0.30
2023-02-16T08:08:38.197Z,-0.20
2023-02-16T08:11:10.544Z,-0.20
2023-02-16T08:13:39.042Z,-0.20
2023-02-16T08:16:10.268Z,-0.30
2023-02-16T08:18:38.472Z,-0.10
2023-02-16T08:21:14.828Z,-0.10
2023-02-16T08:23:47.369Z,-0.10
2023-02-16T08:26:18.215Z,-0.10
2023-02-16T08:28:47.316Z,0.00
2023-02-16T08:31:17.470Z,0.10
2023-02-16T08:33:46.274Z,0.20
2023-02-16T08:36:24.758Z,0.10
2023-02-16T08:38:54.996Z,0.10
2023-02-16T08:41:24.864Z,0.20
2023-02-16T08:43:53.571Z,0.20
2023-02-16T08:46:21.676Z,0.30
2023-02-16T08:48:49.872Z,0.40
2023-02-16T08:51:20.177Z,0.40
2023-02-16T08:53:50.391Z,0.40
2023-02-16T08:56:18.353Z,0.30
2023-02-16T08:58:46.597Z,0.50
2023-02-16T09:01:16.663Z,0.50
2023-02-16T09:03:46.393Z,0.50
2023-02-16T09:06:16.760Z,0.70
2023-02-16T09:08:46.561Z,0.70
2023-02-16T09:11:17.698Z,0.70
2023-02-16T09:13:46.984Z,0.70
2023-02-16T09:16:17.517Z,0.70
2023-02-16T09:18:46.894Z,0.80
2023-02-16T09:21:18.061Z,0.80
2023-02-16T09:23:48.581Z,0.80
2023-02-16T09:26:20.210Z,0.80
2023-02-16T09:28:50.566Z,0.90
2023-02-16T09:31:25.517Z,0.90
2023-02-16T09:33:55.851Z,1.00
2023-02-16T09:36:25.075Z,1.10
2023-02-16T09:38:54.247Z,1.00
2023-02-16T09:41:29.404Z,1.00
2023-02-16T09:44:01.353Z,1.00
2023-02-16T09:46:32.293Z,1.10
2023-02-16T09:49:02.702Z,1.20
2023-02-16T09:51:36.156Z,1.20
2023-02-16T09:54:16.521Z,1.30
2023-02-16T09:56:51.233Z,1.30
2023-02-16T09:59:35.026Z,1.30
2023-02-16T10:02:31.788Z,1.40
2023-02-16T10:05:27.464Z,1.50
2023-02-16T10:08:05.975Z,1.40
2023-02-16T10:10:44.112Z,1.40
2023-02-16T10:13:23.464Z,1.40
2023-02-16T10:15:54.141Z,1.40
2023-02-16T10:18:29.271Z,1.50
2023-02-16T10:21:01.653Z,1.50
2023-02-16T10:23:41.531Z,1.50
2023-02-16T10:26:18.258Z,1.60
2023-02-16T10:28:50.208Z,1.60
2023-02-16T10:31:25.629Z,1.70
2023-02-16T10:34:15.359Z,1.70
2023-02-16T10:37:03.736Z,1.70
2023-02-16T10:39:39.737Z,1.70
2023-02-16T10:42:17.940Z,1.70
2023-02-16T10:44:52.681Z,1.70
2023-02-16T10:47:31.126Z,1.70
2023-02-16T10:49:59.913Z,1.80
2023-02-16T10:52:34.467Z,1.80
2023-02-16T10:55:03.592Z,2.00
2023-02-16T10:57:33.828Z,2.00
2023-02-16T11:00:08.178Z,2.00
2023-02-16T11:02:39.802Z,2.10
2023-02-16T11:05:31.003Z,2.10
2023-02-16T11:08:02.784Z,2.20
2023-02-16T11:10:46.136Z,2.20
2023-02-16T11:13:25.293Z,2.20
2023-02-16T11:15:57.137Z,2.30
2023-02-16T11:18:36.373Z,2.40
2023-02-16T11:21:06.141Z,2.40
2023-02-16T11:23:36.724Z,2.50
2023-02-16T11:26:09.146Z,2.40
2023-02-16T11:28:39.895Z,2.40
2023-02-16T11:31:19.289Z,2.60
2023-02-16T11:33:58.542Z,2.80
2023-02-16T11:36:33.849Z,3.00
2023-02-16T11:39:05.862Z,3.10
2023-02-16T11:41:34.860Z,3.30
2023-02-16T11:44:04.593Z,3.40
2023-02-16T11:46:42.249Z,3.50
2023-02-16T11:49:23.939Z,3.70
2023-02-16T11:51:52.077Z,3.90
2023-02-16T11:54:21.888Z,4.00
2023-02-16T11:57:10.089Z,4.00
2023-02-16T11:59:40.497Z,3.90
2023-02-16T12:03:00.969Z,3.80
2023-02-16T12:05:37.533Z,4.00
2023-02-16T12:08:35.203Z,4.00
2023-02-16T12:11:25.367Z,4.10
2023-02-16T12:14:04.511Z,4.20
2023-02-16T12:16:43.223Z,4.20
2023-02-16T12:19:30.466Z,4.20
2023-02-16T12:22:06.850Z,4.10
2023-02-16T12:24:47.613Z,4.10
2023-02-16T12:27:21.568Z,4.00
2023-02-16T12:29:59.966Z,4.20
2023-02-16T12:32:50.825Z,4.30
2023-02-16T12:35:47.390Z,4.40
2023-02-16T12:38:24.578Z,4.60
2023-02-16T12:41:01.928Z,4.60
2023-02-16T12:43:38.546Z,4.70
2023-02-16T12:46:15.241Z,4.70
2023-02-16T12:48:49.749Z,4.80
2023-02-16T12:51:23.099Z,4.80
2023-02-16T12:53:59.168Z,4.80
2023-02-16T12:56:31.626Z,4.90
2023-02-16T12:59:15.535Z,4.90
2023-02-16T13:01:45.726Z,5.10
2023-02-16T13:04:22.217Z,5.20
2023-02-16T13:06:58.963Z,5.20
2023-02-16T13:09:38.500Z,5.30
2023-02-16T13:12:13.274Z,5.30
2023-02-16T13:14:44.456Z,5.30
2023-02-16T13:17:17.191Z,5.30
2023-02-16T13:19:47.324Z,5.40
2023-02-16T13:22:46.064Z,5.30
2023-02-16T13:25:44.781Z,5.30
2023-02-16T13:28:34.121Z,5.30
2023-02-16T13:31:19.162Z,5.20
2023-02-16T13:34:08.884Z,5.20
2023-02-16T13:37:06.859Z,5.10
2023-02-16T13:39:53.057Z,5.10
2023-02-16T13:42:55.165Z,5.20
2023-02-16T13:45:27.727Z,5.20
2023-02-16T13:47:57.337Z,5.20
2023-02-16T13:50:31.340Z,5.30
2023-02-16T13:53:10.925Z,5.40
2023-02-16T13:55:41.674Z,5.40
2023-02-16T13:58:28.968Z,5.40
2023-02-16T14:00:57.306Z,5.40
2023-02-16T14:03:38.664Z,5.50
2023-02-16T14:06:33.313Z,5.50
2023-02-16T14:09:34.648Z,5.60
2023-02-16T14:12:16.016Z,5.50
2023-02-16T14:14:56.433Z,5.60
2023-02-16T14:17:28.280Z,5.50
2023-02-16T14:19:58.933Z,5.50
2023-02-16T14:22:35.159Z,5.50
2023-02-16T14:25:06.656Z,5.50
2023-02-16T14:27:47.088Z,5.50
2023-02-16T14:30:29.839Z,5.40
2023-02-16T14:33:04.537Z,5.40
2023-02-16T14:35:35.174Z,5.40
2023-02-16T14:38:05.251Z,5.30
2023-02-16T14:40:50.818Z,5.30
2023-02-16T14:43:28.235Z,5.30
2023-02-16T14:46:28.279Z,5.30
2023-02-16T14:49:30.633Z,5.20
2023-02-16T14:52:17.694Z,5.20
2023-02-16T14:55:16.023Z,5.20
2023-02-16T14:57:48.773Z,5.10
2023-02-16T15:00:24.195Z,5.10
2023-02-16T15:02:58.623Z,5.00
2023-02-16T15:05:29.927Z,4.90
2023-02-16T15:08:09.772Z,4.90
2023-02-16T15:10:40.347Z,4.90
2023-02-16T15:13:10.284Z,4.80
2023-02-16T15:15:47.077Z,4.80
2023-02-16T15:21:07.234Z,4.70
2023-02-16T15:23:37.113Z,4.60
2023-02-16T15:26:09.123Z,4.60
2023-02-16T15:28:39.149Z,4.50
2023-02-16T15:31:18.119Z,4.40
2023-02-16T15:33:55.191Z,4.40
2023-02-16T15:36:27.157Z,4.30
2023-02-16T15:38:58.870Z,4.20
2023-02-16T15:41:31.409Z,4.20
2023-02-16T15:44:03.499Z,4.10
2023-02-16T15:46:34.838Z,4.00
2023-02-16T15:49:13.453Z,4.00
2023-02-16T15:51:43.257Z,3.90
2023-02-16T15:54:22.195Z,3.80
2023-02-16T15:56:52.574Z,3.70
2023-02-16T15:59:35.585Z,3.60
2023-02-16T16:02:13.757Z,3.60
2023-02-16T16:04:46.328Z,3.60
2023-02-16T16:07:18.067Z,3.40
2023-02-16T16:09:47.698Z,3.40
2023-02-16T16:12:18.172Z,3.40
2023-02-16T16:14:51.920Z,3.30
2023-02-16T16:17:25.916Z,3.20
2023-02-16T16:19:54.582Z,3.10
2023-02-16T16:22:33.053Z,3.10
2023-02-16T16:25:25.091Z,3.00
2023-02-16T16:27:53.108Z,2.90
2023-02-16T16:30:30.710Z,2.90
2023-02-16T16:33:06.524Z,2.80
2023-02-16T16:35:38.858Z,2.70
2023-02-16T16:38:10.392Z,2.70
2023-02-16T16:40:41.298Z,2.60
2023-02-16T16:43:17.506Z,2.50
2023-02-16T16:45:46.892Z,2.50
2023-02-16T16:48:21.055Z,2.50
2023-02-16T16:50:49.642Z,2.40
2023-02-16T16:53:44.349Z,2.40
2023-02-16T16:56:14.740Z,2.40
2023-02-16T16:58:44.375Z,2.40
2023-02-16T17:01:14.163Z,2.30
2023-02-16T17:03:43.956Z,2.30
2023-02-16T17:06:14.006Z,2.20
2023-02-16T17:08:42.985Z,2.30
2023-02-16T17:11:19.679Z,2.20
2023-02-16T17:13:47.680Z,2.20
2023-02-16T17:16:20.252Z,2.20
2023-02-16T17:18:50.664Z,2.00
2023-02-16T17:21:19.317Z,2.00
2023-02-16T17:23:53.155Z,2.00
2023-02-16T17:26:21.767Z,2.00
2023-02-16T17:28:50.493Z,1.80
2023-02-16T17:31:19.700Z,1.80
2023-02-16T17:33:47.716Z,1.80
2023-02-16T17:36:28.306Z,1.80
2023-02-16T17:38:57.125Z,1.80
2023-02-16T17:41:28.799Z,1.70
2023-02-16T17:43:57.156Z,1.70
2023-02-16T17:46:26.944Z,1.60
2023-02-16T17:48:55.896Z,1.70
2023-02-16T17:51:27.191Z,1.60
2023-02-16T17:53:55.644Z,1.60
2023-02-16T17:56:25.438Z,1.60
2023-02-16T17:58:53.403Z,1.70
2023-02-16T18:01:25.666Z,1.60
2023-02-16T18:03:54.123Z,1.60
2023-02-16T18:06:25.495Z,1.50
2023-02-16T18:08:56.787Z,1.40
2023-02-16T18:11:25.106Z,1.50
2023-02-16T18:13:53.537Z,1.50
2023-02-16T18:16:27.502Z,1.50
2023-02-16T18:18:57.527Z,1.50
2023-02-16T18:21:26.517Z,1.50
2023-02-16T18:23:56.881Z,1.50
2023-02-16T18:26:25.307Z,1.50
2023-02-16T18:28:53.326Z,1.50
2023-02-16T18:31:21.720Z,1.50
2023-02-16T18:33:50.445Z,1.50
2023-02-16T18:36:18.911Z,1.60
2023-02-16T18:38:46.929Z,1.60
2023-02-16T18:41:16.337Z,1.60
2023-02-16T18:43:44.358Z,1.60
2023-02-16T18:46:12.477Z,1.60
2023-02-16T18:48:40.401Z,1.60
2023-02-16T18:51:10.881Z,1.50
2023-02-16T18:53:39.320Z,1.60
2023-02-16T18:56:08.172Z,1.60
2023-02-16T18:58:37.581Z,1.60
2023-02-16T19:01:15.750Z,1.60
2023-02-16T19:03:43.833Z,1.60
2023-02-16T19:06:11.795Z,1.60
2023-02-16T19:08:39.719Z,1.50
2023-02-16T19:11:07.818Z,1.50
2023-02-16T19:13:37.188Z,1.50
2023-02-16T19:16:06.750Z,1.50
2023-02-16T19:18:35.076Z,1.50
2023-02-16T19:21:06.691Z,1.40
2023-02-16T19:23:34.845Z,1.40
2023-02-16T19:26:06.860Z,1.40
2023-02-16T19:28:37.317Z,1.40
2023-02-16T19:31:07.431Z,1.40
2023-02-16T19:33:36.470Z,1.40
2023-02-16T19:36:07.206Z,1.40
2023-02-16T19:38:36.764Z,1.40
2023-02-16T19:41:10.210Z,1.50
2023-02-16T19:43:39.525Z,1.50
2023-02-16T19:46:08.507Z,1.50
2023-02-16T19:48:36.838Z,1.40
2023-02-16T19:51:06.534Z,1.40
2023-02-16T19:53:36.671Z,1.40
2023-02-16T19:56:05.764Z,1.40
2023-02-16T19:58:34.776Z,1.40
2023-02-16T20:01:09.301Z,1.40
2023-02-16T20:03:37.322Z,1.50
2023-02-16T20:06:14.386Z,1.50
2023-02-16T20:08:43.365Z,1.50
2023-02-16T20:11:11.399Z,1.40
2023-02-16T20:13:39.990Z,1.50
2023-02-16T20:16:10.826Z,1.50
2023-02-16T20:18:40.628Z,1.50
2023-02-16T20:21:12.347Z,1.50
2023-02-16T20:23:40.996Z,1.50
2023-02-16T20:26:11.555Z,1.50
2023-02-16T20:28:40.116Z,1.60
2023-02-16T20:34:04.875Z,1.60
2023-02-16T20:36:33.003Z,1.50
2023-02-16T20:39:01.026Z,1.60
2023-02-16T20:41:29.347Z,1.60
2023-02-16T20:43:57.328Z,1.60
2023-02-16T20:46:27.446Z,1.60
2023-02-16T20:48:55.432Z,1.60
2023-02-16T20:51:26.594Z,1.50
2023-02-16T20:53:55.505Z,1.60
2023-02-16T20:56:25.708Z,1.60
2023-02-16T20:58:56.340Z,1.60
2023-02-16T21:01:28.504Z,1.50
2023-02-16T21:03:58.278Z,1.60
2023-02-16T21:06:26.839Z,1.60
2023-02-16T21:08:55.071Z,1.60
2023-02-16T21:11:45.214Z,1.60
2023-02-16T21:14:14.455Z,1.60
2023-02-16T21:16:43.829Z,1.60
2023-02-16T21:19:22.670Z,1.60
2023-02-16T21:21:51.664Z,1.60
2023-02-16T21:24:20.061Z,1.60
2023-02-16T21:26:48.078Z,1.60
2023-02-16T21:32:07.126Z,1.60
2023-02-16T21:34:35.763Z,1.60
2023-02-16T21:37:04.229Z,1.60
2023-02-16T21:39:49.753Z,1.70
2023-02-16T21:42:17.786Z,1.70
2023-02-16T21:44:50.650Z,1.70
2023-02-16T21:47:37.530Z,1.70
2023-02-16T21:50:07.400Z,1.70
2023-02-16T21:52:35.369Z,1.70
2023-02-16T21:55:22.008Z,1.70
2023-02-16T21:57:50.091Z,1.70
2023-02-16T22:00:19.973Z,1.70
2023-02-16T22:02:49.886Z,1.70
2023-02-16T22:05:18.378Z,1.70
2023-02-16T22:07:46.525Z,1.70
2023-02-16T22:10:14.816Z,1.70
2023-02-16T22:12:42.951Z,1.70
2023-02-16T22:15:11.104Z,1.70
2023-02-16T22:17:39.107Z,1.70
2023-02-16T22:20:10.315Z,1.70
2023-02-16T22:22:41.764Z,1.70
2023-02-16T22:25:10.549Z,1.70
2023-02-16T22:27:42.385Z,1.70
2023-02-16T22:30:11.932Z,1.70
2023-02-16T22:32:41.212Z,1.80
2023-02-16T22:35:10.777Z,1.80
2023-02-16T22:37:38.988Z,1.80
2023-02-16T22:40:07.958Z,1.80
2023-02-16T22:42:36.822Z,1.80
2023-02-16T22:45:05.122Z,1.80
2023-02-16T22:47:33.844Z,1.80
2023-02-16T22:50:02.156Z,1.80
2023-02-16T22:52:32.233Z,1.80
2023-02-16T22:55:00.479Z,1.80
2023-02-16T22:57:29.076Z,1.80
2023-02-16T22:59:57.370Z,1.90
2023-02-16T23:02:25.693Z,1.90
2023-02-16T23:04:58.953Z,1.90
2023-02-16T23:07:28.880Z,1.90
2023-02-16T23:09:58.166Z,1.90
2023-02-16T23:12:26.797Z,1.90
2023-02-16T23:14:54.825Z,1.90
2023-02-16T23:17:22.869Z,1.90
2023-02-16T23:19:51.473Z,1.90
2023-02-16T23:22:19.352Z,1.90
2023-02-16T23:25:08.632Z,1.90
2023-02-16T23:27:38.408Z,1.90
2023-02-16T23:30:07.975Z,1.90
2023-02-16T23:32:36.347Z,1.90
2023-02-16T23:35:04.822Z,1.90
2023-02-16T23:37:32.686Z,1.90
2023-02-16T23:40:00.750Z,1.90
2023-02-16T23:42:28.993Z,1.80
2023-02-16T23:45:20.695Z,1.90
2023-02-16T23:47:48.618Z,1.90
2023-02-16T23:50:17.168Z,1.90
2023-02-16T23:52:45.151Z,1.90
2023-02-16T23:55:13.139Z,1.90
2023-02-16T23:57:41.010Z,1.90
